createdAt,value
2017-07-22T00:02:14.192Z,15.60
2017-07-22T00:04:41.219Z,15.70
2017-07-22T00:07:07.520Z,15.70
2017-07-22T00:09:33.895Z,15.70
2017-07-22T00:12:00.279Z,15.60
2017-07-22T00:14:26.676Z,15.70
2017-07-22T00:16:52.970Z,15.80
2017-07-22T00:19:20.027Z,15.60
2017-07-22T00:21:47.108Z,15.40
2017-07-22T00:24:13.477Z,15.40
2017-07-22T00:26:39.816Z,15.40
2017-07-22T00:29:06.148Z,15.40
2017-07-22T00:31:32.455Z,15.30
2017-07-22T00:33:58.785Z,15.30
2017-07-22T00:36:25.165Z,15.30
2017-07-22T00:38:52.239Z,15.40
2017-07-22T00:41:18.541Z,15.30
2017-07-22T00:43:44.992Z,15.30
2017-07-22T00:46:11.315Z,15.30
2017-07-22T00:48:37.608Z,15.30
2017-07-22T00:51:03.999Z,15.30
2017-07-22T00:53:30.404Z,15.30
2017-07-22T00:55:56.727Z,15.30
2017-07-22T00:58:23.092Z,15.30
2017-07-22T01:00:49.415Z,15.40
2017-07-22T01:03:15.756Z,15.40
2017-07-22T01:05:42.102Z,15.50
2017-07-22T01:08:08.399Z,15.60
2017-07-22T01:10:34.728Z,15.60
2017-07-22T01:13:01.031Z,15.70
2017-07-22T01:15:27.391Z,15.80
2017-07-22T01:17:53.696Z,15.80
2017-07-22T01:20:20.062Z,15.70
2017-07-22T01:22:46.419Z,15.70
2017-07-22T01:25:13.533Z,15.80
2017-07-22T01:27:39.852Z,15.70
2017-07-22T01:30:06.188Z,15.80
2017-07-22T01:32:32.564Z,16.00
2017-07-22T01:34:58.901Z,15.90
2017-07-22T01:37:26.288Z,15.80
2017-07-22T01:39:52.655Z,15.80
2017-07-22T01:42:19.006Z,15.80
2017-07-22T01:44:45.331Z,15.90
2017-07-22T01:47:11.806Z,15.90
2017-07-22T01:49:38.188Z,15.90
2017-07-22T01:52:04.552Z,16.00
2017-07-22T01:54:30.895Z,16.00
2017-07-22T01:56:57.252Z,16.00
2017-07-22T01:59:23.676Z,16.00
2017-07-22T02:01:50.101Z,16.00
2017-07-22T02:04:16.581Z,16.00
2017-07-22T02:06:42.971Z,16.00
2017-07-22T02:09:10.004Z,16.10
2017-07-22T02:11:37.039Z,16.20
2017-07-22T02:14:04.113Z,16.10
2017-07-22T02:16:30.515Z,16.10
2017-07-22T02:18:57.183Z,16.20
2017-07-22T02:21:23.497Z,16.20
2017-07-22T02:23:49.855Z,16.00
2017-07-22T02:26:16.214Z,15.90
2017-07-22T02:28:42.553Z,15.80
2017-07-22T02:31:09.658Z,15.90
2017-07-22T02:33:35.991Z,15.90
2017-07-22T02:36:02.377Z,16.00
2017-07-22T02:38:29.468Z,15.90
2017-07-22T02:40:55.835Z,15.90
2017-07-22T02:43:22.235Z,15.90
2017-07-22T02:45:48.539Z,15.90
2017-07-22T02:48:15.603Z,15.90
2017-07-22T02:50:41.958Z,15.80
2017-07-22T02:53:08.259Z,15.90
2017-07-22T02:55:34.552Z,15.90
2017-07-22T02:58:00.897Z,15.80
2017-07-22T03:00:27.947Z,15.40
2017-07-22T03:02:54.310Z,15.40
2017-07-22T03:05:20.671Z,15.40
2017-07-22T03:07:46.972Z,15.40
2017-07-22T03:10:13.291Z,15.50
2017-07-22T03:12:39.661Z,15.60
2017-07-22T03:15:05.971Z,15.50
2017-07-22T03:17:32.314Z,15.60
2017-07-22T03:19:58.919Z,15.60
2017-07-22T03:22:25.251Z,15.60
2017-07-22T03:24:51.637Z,15.50
2017-07-22T03:27:17.974Z,15.50
2017-07-22T03:29:44.351Z,15.60
2017-07-22T03:32:10.658Z,15.50
2017-07-22T03:34:37.760Z,15.40
2017-07-22T03:37:04.135Z,15.40
2017-07-22T03:39:31.167Z,15.20
2017-07-22T03:41:57.464Z,15.20
2017-07-22T03:44:23.792Z,15.10
2017-07-22T03:46:50.147Z,15.10
2017-07-22T03:49:16.451Z,15.10
2017-07-22T03:51:42.797Z,15.10
2017-07-22T03:54:09.131Z,15.10
2017-07-22T03:56:35.444Z,14.90
2017-07-22T03:59:01.841Z,15.00
2017-07-22T04:01:28.151Z,15.00
2017-07-22T04:03:54.502Z,15.00
2017-07-22T04:06:20.863Z,15.00
2017-07-22T04:08:47.177Z,15.00
2017-07-22T04:11:13.502Z,15.10
2017-07-22T04:13:39.794Z,15.20
2017-07-22T04:16:06.107Z,15.20
2017-07-22T04:18:32.439Z,15.20
2017-07-22T04:20:58.731Z,15.20
2017-07-22T04:23:25.051Z,15.20
2017-07-22T04:25:51.424Z,15.30
2017-07-22T04:28:17.816Z,15.20
2017-07-22T04:30:44.147Z,15.20
2017-07-22T04:33:10.460Z,15.30
2017-07-22T04:35:36.799Z,15.30
2017-07-22T04:38:03.107Z,15.30
2017-07-22T04:40:29.469Z,15.30
2017-07-22T04:42:55.816Z,15.40
2017-07-22T04:45:22.139Z,15.60
2017-07-22T04:47:48.438Z,15.80
2017-07-22T04:50:14.816Z,16.00
2017-07-22T04:52:41.175Z,16.10
2017-07-22T04:55:08.220Z,16.20
2017-07-22T04:57:35.312Z,16.40
2017-07-22T05:00:01.632Z,16.30
2017-07-22T05:02:28.000Z,16.40
2017-07-22T05:04:54.316Z,16.60
2017-07-22T05:07:20.653Z,16.80
2017-07-22T05:09:46.971Z,16.80
2017-07-22T05:12:13.346Z,17.00
2017-07-22T05:14:39.720Z,17.00
2017-07-22T05:17:06.031Z,17.00
2017-07-22T05:19:32.349Z,17.10
2017-07-22T05:21:58.690Z,17.10
2017-07-22T05:24:25.013Z,17.10
2017-07-22T05:26:52.051Z,17.20
2017-07-22T05:29:18.410Z,17.20
2017-07-22T05:31:44.776Z,17.40
2017-07-22T05:34:11.085Z,17.60
2017-07-22T05:36:37.414Z,17.80
2017-07-22T05:39:03.751Z,17.90
2017-07-22T05:41:30.068Z,18.10
2017-07-22T05:43:56.376Z,18.20
2017-07-22T05:46:22.788Z,18.10
2017-07-22T05:48:49.844Z,18.30
2017-07-22T05:51:16.248Z,18.30
2017-07-22T05:53:42.616Z,18.70
2017-07-22T05:56:08.920Z,18.80
2017-07-22T05:58:35.291Z,18.90
2017-07-22T06:01:01.617Z,19.20
2017-07-22T06:03:27.975Z,19.40
2017-07-22T06:05:54.311Z,19.50
2017-07-22T06:08:20.678Z,19.40
2017-07-22T06:10:46.975Z,19.50
2017-07-22T06:13:13.320Z,19.80
2017-07-22T06:15:39.673Z,20.00
2017-07-22T06:18:05.979Z,20.20
2017-07-22T06:20:32.380Z,20.40
2017-07-22T06:22:58.715Z,20.40
2017-07-22T06:25:25.024Z,20.60
2017-07-22T06:27:51.358Z,20.60
2017-07-22T06:30:17.663Z,20.90
2017-07-22T06:32:43.999Z,21.00
2017-07-22T06:35:11.069Z,21.20
2017-07-22T06:37:37.380Z,21.20
2017-07-22T06:40:04.482Z,21.00
2017-07-22T06:42:30.795Z,21.00
2017-07-22T06:44:57.135Z,20.80
2017-07-22T06:47:23.515Z,20.90
2017-07-22T06:49:50.604Z,21.30
2017-07-22T06:52:16.928Z,21.20
2017-07-22T06:54:43.259Z,21.20
2017-07-22T06:57:09.587Z,21.50
2017-07-22T06:59:35.915Z,21.70
2017-07-22T07:02:02.252Z,21.90
2017-07-22T07:04:28.586Z,22.40
2017-07-22T07:06:54.948Z,23.00
2017-07-22T07:09:21.288Z,23.40
2017-07-22T07:11:47.867Z,23.60
2017-07-22T07:14:14.422Z,23.80
2017-07-22T07:16:41.713Z,23.40
2017-07-22T07:19:08.048Z,23.30
2017-07-22T07:21:34.364Z,23.70
2017-07-22T07:24:00.679Z,24.20
2017-07-22T07:26:27.011Z,24.70
2017-07-22T07:28:53.341Z,24.90
2017-07-22T07:31:19.721Z,25.20
2017-07-22T07:33:46.035Z,24.90
2017-07-22T07:36:12.348Z,24.70
2017-07-22T07:38:38.688Z,24.60
2017-07-22T07:41:05.021Z,24.50
2017-07-22T07:43:32.071Z,24.40
2017-07-22T07:45:58.428Z,24.40
2017-07-22T07:48:24.768Z,25.10
2017-07-22T07:50:51.101Z,25.60
2017-07-22T07:53:17.472Z,26.20
2017-07-22T07:55:43.887Z,26.70
2017-07-22T07:58:10.205Z,26.60
2017-07-22T08:00:36.537Z,27.40
2017-07-22T08:03:02.913Z,27.70
2017-07-22T08:05:29.215Z,27.30
2017-07-22T08:07:55.708Z,27.90
2017-07-22T08:10:22.067Z,28.00
2017-07-22T08:12:48.375Z,28.40
2017-07-22T08:15:14.727Z,28.60
2017-07-22T08:17:41.217Z,28.80
2017-07-22T08:20:07.579Z,29.20
2017-07-22T08:22:33.981Z,29.70
2017-07-22T08:25:00.340Z,29.60
2017-07-22T08:27:26.671Z,29.60
2017-07-22T08:29:52.991Z,29.90
2017-07-22T08:32:19.351Z,30.10
2017-07-22T08:34:45.663Z,30.20
2017-07-22T08:37:12.091Z,30.60
2017-07-22T08:39:38.447Z,30.60
2017-07-22T08:42:04.781Z,30.60
2017-07-22T08:44:31.095Z,31.30
2017-07-22T08:46:57.474Z,31.40
2017-07-22T08:49:23.816Z,31.30
2017-07-22T08:51:50.867Z,31.20
2017-07-22T08:54:17.973Z,31.80
2017-07-22T08:56:44.340Z,31.70
2017-07-22T08:59:10.704Z,32.00
2017-07-22T09:01:37.013Z,32.40
2017-07-22T09:04:03.318Z,31.90
2017-07-22T09:06:29.679Z,32.70
2017-07-22T09:08:55.991Z,32.90
2017-07-22T09:11:22.334Z,33.10
2017-07-22T09:13:48.712Z,32.60
2017-07-22T09:16:15.053Z,32.80
2017-07-22T09:18:41.485Z,33.30
2017-07-22T09:21:07.803Z,33.80
2017-07-22T09:23:34.200Z,34.20
2017-07-22T09:26:00.552Z,33.80
2017-07-22T09:28:26.865Z,34.00
2017-07-22T09:30:53.181Z,34.20
2017-07-22T09:33:19.549Z,33.70
2017-07-22T09:35:45.917Z,34.00
2017-07-22T09:38:12.280Z,33.90
2017-07-22T09:40:38.648Z,33.20
2017-07-22T09:43:04.959Z,32.80
2017-07-22T09:45:31.275Z,32.20
2017-07-22T09:47:57.654Z,32.20
2017-07-22T09:50:24.006Z,32.60
2017-07-22T09:52:50.332Z,33.20
2017-07-22T09:55:16.684Z,33.60
2017-07-22T09:57:43.066Z,33.80
2017-07-22T10:00:10.208Z,33.50
2017-07-22T10:02:36.536Z,33.50
2017-07-22T10:05:02.910Z,33.90
2017-07-22T10:07:29.237Z,32.80
2017-07-22T10:09:55.556Z,32.30
2017-07-22T10:12:22.439Z,32.80
2017-07-22T10:14:48.784Z,33.50
2017-07-22T10:17:15.096Z,33.90
2017-07-22T10:19:41.517Z,34.70
2017-07-22T10:22:08.612Z,35.20
2017-07-22T10:24:34.988Z,35.20
2017-07-22T10:27:02.055Z,33.60
2017-07-22T10:29:28.399Z,33.60
2017-07-22T10:31:54.754Z,33.30
2017-07-22T10:34:21.060Z,32.30
2017-07-22T10:36:47.420Z,31.00
2017-07-22T10:39:13.773Z,30.50
2017-07-22T10:41:40.132Z,29.80
2017-07-22T10:44:06.440Z,30.00
2017-07-22T10:46:32.740Z,30.20
2017-07-22T10:48:59.863Z,29.70
2017-07-22T10:51:26.204Z,29.70
2017-07-22T10:53:52.582Z,29.60
2017-07-22T10:56:19.652Z,30.70
2017-07-22T10:58:45.967Z,30.70
2017-07-22T11:01:13.066Z,30.50
2017-07-22T11:03:39.404Z,30.50
2017-07-22T11:06:07.268Z,31.10
2017-07-22T11:08:33.600Z,31.10
2017-07-22T11:10:59.896Z,29.20
2017-07-22T11:13:26.235Z,29.30
2017-07-22T11:15:52.555Z,30.20
2017-07-22T11:18:18.864Z,29.90
2017-07-22T11:20:45.940Z,28.90
2017-07-22T11:23:12.286Z,28.90
2017-07-22T11:25:38.614Z,29.30
2017-07-22T11:28:04.933Z,29.60
2017-07-22T11:30:31.301Z,30.00
2017-07-22T11:32:57.717Z,30.00
2017-07-22T11:35:24.109Z,30.30
2017-07-22T11:37:50.527Z,30.50
2017-07-22T11:40:16.894Z,30.50
2017-07-22T11:42:43.220Z,30.40
2017-07-22T11:45:09.608Z,30.00
2017-07-22T11:47:36.755Z,30.00
2017-07-22T11:50:03.111Z,29.90
2017-07-22T11:52:30.148Z,29.40
2017-07-22T11:54:56.459Z,29.40
2017-07-22T11:57:22.879Z,28.60
2017-07-22T11:59:49.304Z,28.30
2017-07-22T12:02:15.786Z,28.40
2017-07-22T12:04:42.156Z,27.90
2017-07-22T12:07:09.326Z,28.20
2017-07-22T12:09:35.666Z,28.20
2017-07-22T12:12:01.987Z,28.30
2017-07-22T12:14:28.333Z,28.40
2017-07-22T12:16:54.701Z,28.50
2017-07-22T12:19:21.016Z,28.20
2017-07-22T12:21:47.403Z,27.40
2017-07-22T12:24:13.846Z,27.30
2017-07-22T12:26:40.167Z,27.10
2017-07-22T12:29:06.768Z,27.00
2017-07-22T12:31:33.527Z,27.20
2017-07-22T12:34:00.266Z,27.50
2017-07-22T12:36:26.720Z,27.80
2017-07-22T12:38:53.071Z,28.10
2017-07-22T12:41:20.169Z,28.40
2017-07-22T12:43:46.527Z,28.40
2017-07-22T12:46:12.934Z,28.60
2017-07-22T12:48:39.265Z,28.60
2017-07-22T12:51:05.615Z,28.50
2017-07-22T12:53:32.207Z,28.40
2017-07-22T12:55:58.569Z,28.60
2017-07-22T12:58:24.906Z,28.60
2017-07-22T13:00:51.236Z,28.70
2017-07-22T13:03:17.598Z,28.50
2017-07-22T13:05:44.724Z,28.40
2017-07-22T13:08:11.072Z,28.50
2017-07-22T13:10:37.469Z,28.40
2017-07-22T13:13:03.833Z,28.30
2017-07-22T13:15:30.168Z,28.30
2017-07-22T13:17:56.488Z,28.20
2017-07-22T13:20:22.804Z,28.30
2017-07-22T13:22:49.183Z,28.30
2017-07-22T13:25:16.289Z,28.10
2017-07-22T13:27:42.600Z,28.10
2017-07-22T13:30:08.935Z,28.30
2017-07-22T13:32:35.317Z,28.40
2017-07-22T13:35:02.372Z,28.00
2017-07-22T13:37:29.499Z,28.20
2017-07-22T13:39:56.604Z,28.20
2017-07-22T13:42:22.953Z,28.20
2017-07-22T13:44:49.277Z,28.10
2017-07-22T13:47:15.641Z,28.20
2017-07-22T13:49:41.960Z,28.20
2017-07-22T13:52:08.275Z,27.90
2017-07-22T13:54:34.674Z,27.90
2017-07-22T13:57:01.007Z,27.80
2017-07-22T13:59:27.546Z,27.70
2017-07-22T14:01:53.916Z,27.70
2017-07-22T14:04:20.233Z,27.70
2017-07-22T14:06:46.560Z,27.60
2017-07-22T14:09:12.915Z,27.60
2017-07-22T14:11:39.219Z,27.60
2017-07-22T14:14:05.524Z,27.50
2017-07-22T14:16:31.860Z,27.50
2017-07-22T14:18:58.200Z,27.20
2017-07-22T14:21:24.603Z,27.10
2017-07-22T14:23:50.944Z,27.00
2017-07-22T14:26:17.297Z,26.70
2017-07-22T14:28:43.599Z,26.20
2017-07-22T14:31:09.931Z,25.60
2017-07-22T14:33:36.272Z,25.20
2017-07-22T14:36:02.628Z,25.10
2017-07-22T14:38:29.012Z,24.90
2017-07-22T14:40:55.355Z,24.90
2017-07-22T14:43:21.692Z,25.10
2017-07-22T14:45:48.044Z,25.20
2017-07-22T14:48:14.408Z,24.70
2017-07-22T14:50:41.521Z,24.30
2017-07-22T14:53:07.852Z,24.30
2017-07-22T14:55:34.181Z,24.30
2017-07-22T14:58:00.524Z,24.20
2017-07-22T15:00:26.866Z,24.60
2017-07-22T15:02:53.952Z,25.10
2017-07-22T15:05:20.279Z,25.10
2017-07-22T15:07:46.577Z,25.30
2017-07-22T15:10:12.892Z,25.30
2017-07-22T15:12:39.240Z,24.80
2017-07-22T15:15:05.559Z,24.10
2017-07-22T15:17:31.907Z,23.80
2017-07-22T15:19:58.223Z,24.00
2017-07-22T15:22:24.559Z,24.40
2017-07-22T15:24:50.952Z,24.50
2017-07-22T15:27:17.300Z,24.40
2017-07-22T15:29:43.669Z,24.30
2017-07-22T15:32:10.264Z,24.20
2017-07-22T15:34:36.690Z,24.20
2017-07-22T15:37:03.144Z,24.30
2017-07-22T15:39:29.547Z,24.30
2017-07-22T15:41:55.915Z,24.40
2017-07-22T15:44:22.263Z,24.40
2017-07-22T15:46:48.572Z,24.60
2017-07-22T15:49:14.915Z,24.80
2017-07-22T15:51:42.138Z,25.00
2017-07-22T15:54:08.592Z,24.90
2017-07-22T15:56:34.941Z,25.00
2017-07-22T15:59:02.119Z,25.10
2017-07-22T16:01:28.522Z,25.10
2017-07-22T16:03:54.858Z,25.30
2017-07-22T16:06:21.322Z,25.30
2017-07-22T16:08:47.640Z,25.40
2017-07-22T16:11:14.062Z,25.30
2017-07-22T16:13:40.500Z,25.30
2017-07-22T16:16:06.899Z,25.30
2017-07-22T16:18:33.286Z,25.10
2017-07-22T16:20:59.762Z,25.10
2017-07-22T16:23:26.938Z,25.10
2017-07-22T16:25:53.319Z,25.10
2017-07-22T16:28:19.647Z,25.10
2017-07-22T16:30:46.099Z,25.10
2017-07-22T16:33:12.480Z,25.10
2017-07-22T16:35:38.800Z,25.10
2017-07-22T16:38:05.145Z,25.00
2017-07-22T16:40:31.512Z,25.00
2017-07-22T16:42:57.926Z,24.80
2017-07-22T16:45:25.191Z,24.70
2017-07-22T16:47:52.321Z,24.60
2017-07-22T16:50:18.741Z,24.60
2017-07-22T16:52:45.073Z,24.60
2017-07-22T16:55:11.484Z,24.60
2017-07-22T16:57:37.807Z,24.60
2017-07-22T17:00:04.287Z,24.40
2017-07-22T17:02:30.645Z,24.40
2017-07-22T17:04:57.736Z,24.30
2017-07-22T17:07:24.164Z,24.30
2017-07-22T17:09:50.616Z,24.30
2017-07-22T17:12:16.924Z,24.30
2017-07-22T17:14:43.263Z,24.20
2017-07-22T17:17:09.598Z,24.10
2017-07-22T17:19:35.945Z,24.00
2017-07-22T17:22:02.279Z,24.00
2017-07-22T17:24:28.599Z,24.10
2017-07-22T17:26:54.955Z,24.00
2017-07-22T17:29:21.276Z,23.90
2017-07-22T17:31:47.584Z,23.90
2017-07-22T17:34:13.964Z,23.90
2017-07-22T17:36:40.280Z,23.90
2017-07-22T17:39:06.601Z,23.60
2017-07-22T17:41:32.991Z,23.60
2017-07-22T17:43:59.346Z,23.60
2017-07-22T17:46:25.659Z,23.70
2017-07-22T17:48:52.039Z,23.80
2017-07-22T17:51:18.371Z,23.90
2017-07-22T17:53:45.147Z,23.90
2017-07-22T17:56:11.469Z,23.90
2017-07-22T17:58:37.849Z,23.90
2017-07-22T18:01:04.179Z,23.70
2017-07-22T18:03:30.513Z,23.60
2017-07-22T18:05:56.880Z,23.60
2017-07-22T18:08:23.216Z,23.60
2017-07-22T18:10:49.560Z,23.70
2017-07-22T18:13:15.962Z,23.60
2017-07-22T18:15:43.044Z,23.60
2017-07-22T18:18:09.455Z,23.50
2017-07-22T18:20:36.544Z,23.50
2017-07-22T18:23:02.887Z,23.50
2017-07-22T18:25:29.268Z,23.40
2017-07-22T18:27:55.653Z,23.40
2017-07-22T18:30:22.068Z,23.40
2017-07-22T18:32:48.418Z,23.20
2017-07-22T18:35:14.775Z,23.20
2017-07-22T18:37:41.892Z,23.00
2017-07-22T18:40:08.223Z,23.00
2017-07-22T18:42:34.567Z,23.00
2017-07-22T18:45:00.893Z,22.80
2017-07-22T18:47:27.299Z,22.80
2017-07-22T18:49:53.704Z,22.70
2017-07-22T18:52:20.025Z,22.80
2017-07-22T18:54:46.348Z,22.70
2017-07-22T18:57:12.723Z,22.70
2017-07-22T18:59:39.066Z,22.60
2017-07-22T19:02:05.423Z,22.70
2017-07-22T19:04:31.784Z,22.50
2017-07-22T19:06:58.100Z,22.50
2017-07-22T19:09:24.447Z,22.40
2017-07-22T19:11:50.825Z,22.40
2017-07-22T19:14:17.224Z,22.30
2017-07-22T19:16:43.591Z,22.30
2017-07-22T19:19:09.948Z,22.30
2017-07-22T19:21:36.281Z,22.30
2017-07-22T19:24:02.624Z,22.20
2017-07-22T19:26:29.012Z,22.30
2017-07-22T19:28:55.340Z,22.10
2017-07-22T19:31:21.667Z,22.00
2017-07-22T19:33:48.119Z,22.00
2017-07-22T19:36:14.443Z,22.00
2017-07-22T19:38:40.779Z,21.90
2017-07-22T19:41:07.087Z,21.90
2017-07-22T19:43:33.448Z,21.70
2017-07-22T19:46:00.554Z,20.90
2017-07-22T19:48:26.889Z,20.80
2017-07-22T19:50:53.269Z,21.00
2017-07-22T19:53:20.350Z,21.00
2017-07-22T19:55:46.691Z,21.00
2017-07-22T19:58:13.047Z,20.80
2017-07-22T20:00:39.360Z,20.90
2017-07-22T20:03:05.716Z,20.80
2017-07-22T20:05:32.084Z,20.50
2017-07-22T20:07:58.464Z,20.10
2017-07-22T20:10:24.788Z,20.10
2017-07-22T20:12:51.136Z,20.00
2017-07-22T20:15:17.478Z,19.80
2017-07-22T20:17:43.911Z,19.70
2017-07-22T20:20:10.306Z,19.60
2017-07-22T20:22:36.623Z,19.50
2017-07-22T20:25:02.971Z,19.60
2017-07-22T20:27:29.305Z,19.50
2017-07-22T20:29:55.623Z,19.40
2017-07-22T20:32:21.980Z,19.50
2017-07-22T20:34:48.295Z,19.60
2017-07-22T20:37:14.663Z,19.70
2017-07-22T20:39:41.015Z,19.90
2017-07-22T20:42:07.365Z,20.00
2017-07-22T20:44:33.714Z,20.10
2017-07-22T20:47:00.111Z,19.90
2017-07-22T20:49:26.425Z,20.00
2017-07-22T20:51:52.793Z,20.00
2017-07-22T20:54:19.184Z,20.00
2017-07-22T20:56:45.509Z,20.00
2017-07-22T20:59:11.884Z,19.80
2017-07-22T21:01:38.222Z,19.70
2017-07-22T21:04:04.650Z,19.70
2017-07-22T21:06:31.052Z,19.60
2017-07-22T21:08:57.424Z,19.60
2017-07-22T21:11:23.775Z,19.30
2017-07-22T21:13:50.108Z,19.40
2017-07-22T21:16:16.506Z,19.40
2017-07-22T21:18:42.863Z,19.30
2017-07-22T21:21:09.293Z,19.20
2017-07-22T21:23:35.616Z,19.10
2017-07-22T21:26:02.000Z,19.20
2017-07-22T21:28:28.486Z,19.40
2017-07-22T21:30:54.839Z,19.50
2017-07-22T21:33:21.927Z,19.60
2017-07-22T21:35:48.270Z,19.60
2017-07-22T21:38:14.599Z,19.70
2017-07-22T21:40:40.964Z,19.70
2017-07-22T21:43:07.328Z,19.60
2017-07-22T21:45:33.659Z,19.60
2017-07-22T21:47:59.988Z,19.60
2017-07-22T21:50:26.395Z,19.60
2017-07-22T21:52:52.715Z,19.50
2017-07-22T21:55:19.060Z,19.40
2017-07-22T21:57:45.513Z,19.30
2017-07-22T22:00:11.856Z,19.30
2017-07-22T22:02:38.211Z,19.20
2017-07-22T22:05:04.611Z,19.20
2017-07-22T22:07:30.939Z,19.20
2017-07-22T22:09:57.311Z,19.00
2017-07-22T22:12:23.661Z,19.10
2017-07-22T22:14:49.972Z,19.20
2017-07-22T22:17:16.304Z,19.20
2017-07-22T22:19:42.656Z,19.30
2017-07-22T22:22:09.707Z,19.30
2017-07-22T22:24:36.074Z,19.30
2017-07-22T22:27:02.445Z,19.20
2017-07-22T22:29:28.811Z,19.20
2017-07-22T22:31:55.851Z,19.20
2017-07-22T22:34:22.904Z,19.00
2017-07-22T22:36:49.268Z,19.00
2017-07-22T22:39:15.594Z,18.80
2017-07-22T22:41:41.984Z,18.70
2017-07-22T22:44:08.311Z,18.40
2017-07-22T22:46:34.626Z,18.20
2017-07-22T22:49:00.957Z,18.30
2017-07-22T22:51:27.360Z,18.10
2017-07-22T22:53:54.478Z,17.60
2017-07-22T22:56:20.816Z,17.60
2017-07-22T22:58:47.136Z,17.50
2017-07-22T23:01:13.519Z,17.50
2017-07-22T23:03:39.859Z,17.40
2017-07-22T23:06:06.243Z,17.20
2017-07-22T23:08:32.600Z,17.20
2017-07-22T23:10:58.992Z,17.20
2017-07-22T23:13:25.319Z,17.10
2017-07-22T23:15:52.388Z,17.10
2017-07-22T23:18:18.728Z,17.10
2017-07-22T23:20:45.439Z,17.20
2017-07-22T23:23:11.752Z,17.30
2017-07-22T23:25:38.215Z,17.20
2017-07-22T23:28:04.564Z,17.20
2017-07-22T23:30:30.906Z,17.30
2017-07-22T23:32:57.219Z,17.40
2017-07-22T23:35:23.614Z,17.40
2017-07-22T23:37:49.949Z,17.40
2017-07-22T23:40:16.243Z,17.30
2017-07-22T23:42:42.587Z,17.30
2017-07-22T23:45:08.974Z,17.20
2017-07-22T23:47:35.336Z,17.20
2017-07-22T23:50:01.731Z,17.00
2017-07-22T23:52:28.078Z,17.10
2017-07-22T23:54:55.155Z,17.30
2017-07-22T23:57:21.467Z,17.30
2017-07-22T23:59:47.787Z,17.30
